createdAt,value
2022-11-08T00:00:23.291Z,23.25
2022-11-08T00:02:51.694Z,25.65
2022-11-08T00:05:37.461Z,28.23
2022-11-08T00:08:23.726Z,27.48
2022-11-08T00:11:09.411Z,26.33
2022-11-08T00:13:56.775Z,25.75
2022-11-08T00:16:25.068Z,28.35
2022-11-08T00:18:53.288Z,25.08
2022-11-08T00:21:21.637Z,26.90
2022-11-08T00:23:49.758Z,26.23
2022-11-08T00:26:17.952Z,25.67
2022-11-08T00:28:47.571Z,28.70
2022-11-08T00:31:15.792Z,24.23
2022-11-08T00:33:43.961Z,28.33
2022-11-08T00:36:12.343Z,26.80
2022-11-08T00:38:42.898Z,27.50
2022-11-08T00:41:11.266Z,26.55
2022-11-08T00:43:39.464Z,27.92
2022-11-08T00:46:09.265Z,26.80
2022-11-08T00:48:37.737Z,27.13
2022-11-08T00:51:08.265Z,25.02
2022-11-08T00:53:38.613Z,33.28
2022-11-08T00:56:08.301Z,31.25
2022-11-08T00:58:36.786Z,28.77
2022-11-08T01:01:12.396Z,26.17
2022-11-08T01:03:40.934Z,28.33
2022-11-08T01:06:12.875Z,30.17
2022-11-08T01:08:41.578Z,24.02
2022-11-08T01:11:12.061Z,27.27
2022-11-08T01:13:40.664Z,26.02
2022-11-08T01:16:12.481Z,26.42
2022-11-08T01:18:41.045Z,22.45
2022-11-08T01:21:09.598Z,23.63
2022-11-08T01:23:38.220Z,25.25
2022-11-08T01:26:08.836Z,24.35
2022-11-08T01:28:37.938Z,24.77
2022-11-08T01:31:08.387Z,27.63
2022-11-08T01:33:38.442Z,24.48
2022-11-08T01:36:08.283Z,27.23
2022-11-08T01:38:37.150Z,25.60
2022-11-08T01:41:05.478Z,28.10
2022-11-08T01:43:42.504Z,26.35
2022-11-08T01:46:39.058Z,28.67
2022-11-08T01:49:31.177Z,23.40
2022-11-08T01:52:20.659Z,28.73
2022-11-08T01:54:56.914Z,30.77
2022-11-08T01:57:29.355Z,25.08
2022-11-08T02:00:00.085Z,24.15
2022-11-08T02:02:29.214Z,28.52
2022-11-08T02:04:59.763Z,26.63
2022-11-08T02:07:29.063Z,24.70
2022-11-08T02:09:58.208Z,31.23
2022-11-08T02:12:27.907Z,28.48
2022-11-08T02:14:56.233Z,23.75
2022-11-08T02:17:24.499Z,25.10
2022-11-08T02:19:52.779Z,28.80
2022-11-08T02:22:28.848Z,26.73
2022-11-08T02:25:00.348Z,26.00
2022-11-08T02:27:28.950Z,30.38
2022-11-08T02:29:57.960Z,28.17
2022-11-08T02:32:26.285Z,26.15
2022-11-08T02:34:58.604Z,26.10
2022-11-08T02:37:27.609Z,28.50
2022-11-08T02:39:55.773Z,31.63
2022-11-08T02:42:25.491Z,27.17
2022-11-08T02:44:53.687Z,31.00
2022-11-08T02:47:21.934Z,30.40
2022-11-08T02:49:50.186Z,25.08
2022-11-08T02:52:18.523Z,28.50
2022-11-08T02:54:46.666Z,28.00
2022-11-08T02:57:15.007Z,30.50
2022-11-08T02:59:44.609Z,25.73
2022-11-08T03:02:12.876Z,28.90
2022-11-08T03:04:41.148Z,27.02
2022-11-08T03:07:09.360Z,26.45
2022-11-08T03:09:37.592Z,29.52
2022-11-08T03:12:06.216Z,31.60
2022-11-08T03:14:34.349Z,24.35
2022-11-08T03:17:04.782Z,28.63
2022-11-08T03:19:33.008Z,27.83
2022-11-08T03:22:01.735Z,28.90
2022-11-08T03:24:29.913Z,29.92
2022-11-08T03:26:58.381Z,26.77
2022-11-08T03:29:26.563Z,28.17
2022-11-08T03:31:54.840Z,24.50
2022-11-08T03:34:24.553Z,28.88
2022-11-08T03:36:52.791Z,26.13
2022-11-08T03:39:20.941Z,29.23
2022-11-08T03:41:49.265Z,29.73
2022-11-08T03:44:17.407Z,29.33
2022-11-08T03:46:45.607Z,31.35
2022-11-08T03:49:13.862Z,28.67
2022-11-08T03:51:43.542Z,26.75
2022-11-08T03:54:11.932Z,27.35
2022-11-08T03:56:40.224Z,26.77
2022-11-08T03:59:08.631Z,33.67
2022-11-08T04:01:37.072Z,28.75
2022-11-08T04:04:05.679Z,24.42
2022-11-08T04:06:34.090Z,25.55
2022-11-08T04:09:03.969Z,28.67
2022-11-08T04:11:49.951Z,31.38
2022-11-08T04:14:35.546Z,28.17
2022-11-08T04:17:03.942Z,28.35
2022-11-08T04:19:49.373Z,33.20
2022-11-08T04:22:17.795Z,31.42
2022-11-08T04:24:47.333Z,29.13
2022-11-08T04:27:15.555Z,30.23
2022-11-08T04:29:44.894Z,29.42
2022-11-08T04:32:13.157Z,30.13
2022-11-08T04:34:41.312Z,29.75
2022-11-08T04:37:09.593Z,27.10
2022-11-08T04:39:37.770Z,28.70
2022-11-08T04:42:07.550Z,28.75
2022-11-08T04:44:35.801Z,31.90
2022-11-08T04:47:04.012Z,31.17
2022-11-08T04:49:32.263Z,31.05
2022-11-08T04:52:00.510Z,25.10
2022-11-08T04:54:28.662Z,29.90
2022-11-08T04:56:57.287Z,28.92
2022-11-08T04:59:26.845Z,29.73
2022-11-08T05:01:55.202Z,27.58
2022-11-08T05:04:23.423Z,31.73
2022-11-08T05:06:51.666Z,31.30
2022-11-08T05:09:19.891Z,32.63
2022-11-08T05:11:48.195Z,26.70
2022-11-08T05:14:16.421Z,30.83
2022-11-08T05:16:46.020Z,29.30
2022-11-08T05:19:14.164Z,32.25
2022-11-08T05:22:00.075Z,28.02
2022-11-08T05:24:28.305Z,30.20
2022-11-08T05:26:56.517Z,29.90
2022-11-08T05:29:24.936Z,29.80
2022-11-08T05:31:54.514Z,31.77
2022-11-08T05:34:22.760Z,31.00
2022-11-08T05:36:51.016Z,36.47
2022-11-08T05:39:19.368Z,26.25
2022-11-08T05:41:47.554Z,28.50
2022-11-08T05:44:16.012Z,27.85
2022-11-08T05:46:44.199Z,23.08
2022-11-08T05:49:13.835Z,22.45
2022-11-08T05:51:42.011Z,20.55
2022-11-08T05:54:10.279Z,25.15
2022-11-08T05:56:38.501Z,23.95
2022-11-08T05:59:07.154Z,26.88
2022-11-08T06:01:35.943Z,23.80
2022-11-08T06:04:04.309Z,25.23
2022-11-08T06:06:34.128Z,22.52
2022-11-08T06:09:02.386Z,23.67
2022-11-08T06:11:30.644Z,20.20
2022-11-08T06:13:58.888Z,27.20
2022-11-08T06:16:27.079Z,21.00
2022-11-08T06:18:55.475Z,20.55
2022-11-08T06:21:23.924Z,22.75
2022-11-08T06:23:55.062Z,28.42
2022-11-08T06:26:24.168Z,21.33
2022-11-08T06:28:52.763Z,20.05
2022-11-08T06:31:21.073Z,23.63
2022-11-08T06:33:49.286Z,15.77
2022-11-08T06:36:17.735Z,21.83
2022-11-08T06:38:45.850Z,21.10
2022-11-08T06:41:19.822Z,20.63
2022-11-08T06:43:48.456Z,20.40
2022-11-08T06:46:16.764Z,20.33
2022-11-08T06:48:45.230Z,22.15
2022-11-08T06:51:13.569Z,20.30
2022-11-08T06:53:41.878Z,23.05
2022-11-08T06:56:10.134Z,19.15
2022-11-08T06:58:40.026Z,20.20
2022-11-08T07:01:10.518Z,18.67
2022-11-08T07:03:38.991Z,19.85
2022-11-08T07:06:07.993Z,19.30
2022-11-08T07:08:36.609Z,22.10
2022-11-08T07:11:05.235Z,16.85
2022-11-08T07:13:33.521Z,17.90
2022-11-08T07:16:03.605Z,19.58
2022-11-08T07:18:31.983Z,16.88
2022-11-08T07:21:01.507Z,19.67
2022-11-08T07:23:30.255Z,17.80
2022-11-08T07:26:02.611Z,23.42
2022-11-08T07:28:30.885Z,18.38
2022-11-08T07:31:00.035Z,15.65
2022-11-08T07:33:29.961Z,16.08
2022-11-08T07:35:58.219Z,28.20
2022-11-08T07:38:27.121Z,20.17
2022-11-08T07:40:58.682Z,31.90
2022-11-08T07:43:28.287Z,18.40
2022-11-08T07:46:01.995Z,21.92
2022-11-08T07:48:32.417Z,20.30
2022-11-08T07:51:00.893Z,22.55
2022-11-08T07:53:29.382Z,18.65
2022-11-08T07:55:58.421Z,16.38
2022-11-08T07:58:27.109Z,28.13
2022-11-08T08:00:55.414Z,22.27
2022-11-08T08:03:24.077Z,22.80
2022-11-08T08:06:00.468Z,24.00
2022-11-08T08:08:29.959Z,18.00
2022-11-08T08:11:00.494Z,18.30
2022-11-08T08:13:29.213Z,19.45
2022-11-08T08:16:00.216Z,19.23
2022-11-08T08:18:28.982Z,17.60
2022-11-08T08:20:58.806Z,16.60
2022-11-08T08:23:27.134Z,16.92
2022-11-08T08:25:55.339Z,16.15
2022-11-08T08:28:23.542Z,19.50
2022-11-08T08:30:51.761Z,19.05
2022-11-08T08:33:29.130Z,13.75
2022-11-08T08:36:01.792Z,20.50
2022-11-08T08:38:31.149Z,17.55
2022-11-08T08:40:59.785Z,18.85
2022-11-08T08:43:28.776Z,20.00
2022-11-08T08:45:59.783Z,17.65
2022-11-08T08:48:28.096Z,21.30
2022-11-08T08:50:56.543Z,16.50
2022-11-08T08:53:26.476Z,17.25
2022-11-08T08:55:54.620Z,16.98
2022-11-08T08:58:23.565Z,13.98
2022-11-08T09:03:40.666Z,12.43
2022-11-08T09:06:09.273Z,12.43
2022-11-08T09:08:38.938Z,14.98
2022-11-08T09:11:07.316Z,13.70
2022-11-08T09:13:35.589Z,15.80
2022-11-08T09:16:04.101Z,21.05
2022-11-08T09:18:33.086Z,21.10
2022-11-08T09:21:01.539Z,13.95
2022-11-08T09:23:29.856Z,14.18
2022-11-08T09:26:00.382Z,15.45
2022-11-08T09:28:31.516Z,15.90
2022-11-08T09:31:09.225Z,15.50
2022-11-08T09:33:39.116Z,16.48
2022-11-08T09:36:09.190Z,11.88
2022-11-08T09:38:37.583Z,14.95
2022-11-08T09:41:22.685Z,14.82
2022-11-08T09:44:07.748Z,12.23
2022-11-08T09:46:44.686Z,12.35
2022-11-08T09:49:19.541Z,12.27
2022-11-08T09:51:48.524Z,14.63
2022-11-08T09:54:22.039Z,11.23
2022-11-08T09:56:54.344Z,21.60
2022-11-08T09:59:34.648Z,12.43
2022-11-08T10:02:03.267Z,11.00
2022-11-08T10:04:34.137Z,8.55
2022-11-08T10:07:15.015Z,10.52
2022-11-08T10:10:05.632Z,14.70
2022-11-08T10:12:43.809Z,8.18
2022-11-08T10:15:25.353Z,14.40
2022-11-08T10:18:16.196Z,11.45
2022-11-08T10:20:57.793Z,12.52
2022-11-08T10:23:33.352Z,15.95
2022-11-08T10:26:05.575Z,7.53
2022-11-08T10:28:38.252Z,10.13
2022-11-08T10:31:07.310Z,9.40
2022-11-08T10:33:42.828Z,10.48
2022-11-08T10:36:16.234Z,9.95
2022-11-08T10:38:58.199Z,11.77
2022-11-08T10:41:33.120Z,8.40
2022-11-08T10:44:06.649Z,7.28
2022-11-08T10:46:42.516Z,11.15
2022-11-08T10:49:18.472Z,8.45
2022-11-08T10:51:48.465Z,7.70
2022-11-08T10:54:42.939Z,5.75
2022-11-08T10:57:12.795Z,9.30
2022-11-08T10:59:43.607Z,6.65
2022-11-08T11:02:24.773Z,9.43
2022-11-08T11:04:56.166Z,9.80
2022-11-08T11:07:31.972Z,8.93
2022-11-08T11:10:17.623Z,7.95
2022-11-08T11:12:50.845Z,4.90
2022-11-08T11:15:20.567Z,5.20
2022-11-08T11:17:49.015Z,8.43
2022-11-08T11:20:23.090Z,6.72
2022-11-08T11:22:53.214Z,5.95
2022-11-08T11:25:23.312Z,5.68
2022-11-08T11:27:55.426Z,5.53
2022-11-08T11:30:29.598Z,7.22
2022-11-08T11:33:23.052Z,6.38
2022-11-08T11:35:56.100Z,7.75
2022-11-08T11:38:35.479Z,6.63
2022-11-08T11:41:11.103Z,9.35
2022-11-08T11:43:45.229Z,5.50
2022-11-08T11:46:22.092Z,7.60
2022-11-08T11:48:56.529Z,4.85
2022-11-08T11:51:29.352Z,7.18
2022-11-08T11:53:58.387Z,7.20
2022-11-08T11:56:44.302Z,5.10
2022-11-08T11:59:33.144Z,6.22
2022-11-08T12:02:21.209Z,4.68
2022-11-08T12:05:10.437Z,6.55
2022-11-08T12:07:46.552Z,6.22
2022-11-08T12:10:24.320Z,9.60
2022-11-08T12:13:00.075Z,6.68
2022-11-08T12:15:35.089Z,9.20
2022-11-08T12:18:42.632Z,9.75
2022-11-08T12:21:15.106Z,14.23
2022-11-08T12:24:15.508Z,9.25
2022-11-08T12:26:52.419Z,7.60
2022-11-08T12:29:26.154Z,6.15
2022-11-08T12:32:08.407Z,9.50
2022-11-08T12:34:49.635Z,14.35
2022-11-08T12:37:28.961Z,9.63
2022-11-08T12:40:02.056Z,11.77
2022-11-08T12:42:55.821Z,10.07
2022-11-08T12:45:33.911Z,12.35
2022-11-08T12:48:12.748Z,6.18
2022-11-08T12:50:50.458Z,13.43
2022-11-08T12:53:54.248Z,9.85
2022-11-08T12:56:28.072Z,7.70
2022-11-08T12:58:57.385Z,8.80
2022-11-08T13:01:25.613Z,9.05
2022-11-08T13:04:44.834Z,7.82
2022-11-08T13:07:37.332Z,4.65
2022-11-08T13:10:14.435Z,6.32
2022-11-08T13:12:50.116Z,4.95
2022-11-08T13:15:20.768Z,5.95
2022-11-08T13:18:34.249Z,3.97
2022-11-08T13:21:42.330Z,5.75
2022-11-08T13:24:50.068Z,7.80
2022-11-08T13:27:31.501Z,6.13
2022-11-08T13:30:05.247Z,4.95
2022-11-08T13:32:52.718Z,7.47
2022-11-08T13:35:28.246Z,4.75
2022-11-08T13:38:09.192Z,8.05
2022-11-08T13:41:17.508Z,5.20
2022-11-08T13:43:49.253Z,10.60
2022-11-08T13:46:50.431Z,9.02
2022-11-08T13:49:24.310Z,7.93
2022-11-08T13:52:31.100Z,6.90
2022-11-08T13:55:00.780Z,3.60
2022-11-08T13:57:56.933Z,3.45
2022-11-08T14:00:44.411Z,7.13
2022-11-08T14:03:49.405Z,4.70
2022-11-08T14:06:27.489Z,5.18
2022-11-08T14:09:03.439Z,4.22
2022-11-08T14:11:47.877Z,6.00
2022-11-08T14:14:35.152Z,8.20
2022-11-08T14:17:36.250Z,3.55
2022-11-08T14:20:35.065Z,6.18
2022-11-08T14:23:22.129Z,7.35
2022-11-08T14:25:54.644Z,7.65
2022-11-08T14:28:26.961Z,8.43
2022-11-08T14:30:55.315Z,5.03
2022-11-08T14:33:24.955Z,8.07
2022-11-08T14:35:59.333Z,6.93
2022-11-08T14:38:28.047Z,11.15
2022-11-08T14:40:59.738Z,10.10
2022-11-08T14:43:30.422Z,7.70
2022-11-08T14:45:58.971Z,4.63
2022-11-08T14:48:30.838Z,5.38
2022-11-08T14:51:03.215Z,6.47
2022-11-08T14:53:33.260Z,4.68
2022-11-08T14:56:24.313Z,7.57
2022-11-08T14:58:55.809Z,6.88
2022-11-08T15:01:26.780Z,5.55
2022-11-08T15:03:58.543Z,7.20
2022-11-08T15:06:32.510Z,5.03
2022-11-08T15:09:02.702Z,4.82
2022-11-08T15:11:34.135Z,5.53
2022-11-08T15:14:06.113Z,5.93
2022-11-08T15:16:42.625Z,6.97
2022-11-08T15:19:28.977Z,14.15
2022-11-08T15:21:57.515Z,11.88
2022-11-08T15:24:34.702Z,13.10
2022-11-08T15:27:08.721Z,13.23
2022-11-08T15:30:00.521Z,13.93
2022-11-08T15:32:35.009Z,11.23
2022-11-08T15:35:04.181Z,13.00
2022-11-08T15:37:37.847Z,15.48
2022-11-08T15:40:08.607Z,14.02
2022-11-08T15:42:44.822Z,15.20
2022-11-08T15:45:26.055Z,11.85
2022-11-08T15:48:01.178Z,12.30
2022-11-08T15:50:31.005Z,16.33
2022-11-08T15:53:01.444Z,21.63
2022-11-08T15:55:32.104Z,14.05
2022-11-08T15:58:00.890Z,11.98
2022-11-08T16:00:32.733Z,15.05
2022-11-08T16:03:00.997Z,16.75
2022-11-08T16:05:35.649Z,13.52
2022-11-08T16:08:03.929Z,20.75
2022-11-08T16:10:35.839Z,21.10
2022-11-08T16:13:04.699Z,14.60
2022-11-08T16:15:36.058Z,20.88
2022-11-08T16:18:04.473Z,18.15
2022-11-08T16:20:35.802Z,17.80
2022-11-08T16:23:06.941Z,16.58
2022-11-08T16:25:37.615Z,20.25
2022-11-08T16:28:09.125Z,14.80
2022-11-08T16:30:39.077Z,21.25
2022-11-08T16:33:19.746Z,13.77
2022-11-08T16:35:48.432Z,19.10
2022-11-08T16:38:23.544Z,16.35
2022-11-08T16:40:52.307Z,16.13
2022-11-08T16:43:20.855Z,13.52
2022-11-08T16:46:05.054Z,15.10
2022-11-08T16:48:36.048Z,14.88
2022-11-08T16:51:07.022Z,15.02
2022-11-08T16:53:37.777Z,17.75
2022-11-08T16:56:06.039Z,16.15
2022-11-08T16:58:34.399Z,17.27
2022-11-08T17:01:10.289Z,17.48
2022-11-08T17:03:39.189Z,19.45
2022-11-08T17:06:08.088Z,20.25
2022-11-08T17:08:36.440Z,19.35
2022-11-08T17:11:04.746Z,17.48
2022-11-08T17:13:39.120Z,24.05
2022-11-08T17:16:13.248Z,16.90
2022-11-08T17:18:42.646Z,19.92
2022-11-08T17:21:42.992Z,20.48
2022-11-08T17:24:04.794Z,21.63
2022-11-08T17:26:33.247Z,25.50
2022-11-08T17:29:01.603Z,22.52
2022-11-08T17:31:31.285Z,20.83
2022-11-08T17:33:59.540Z,21.92
2022-11-08T17:36:27.694Z,22.25
2022-11-08T17:38:56.012Z,25.75
2022-11-08T17:41:24.215Z,26.88
2022-11-08T17:43:52.487Z,25.52
2022-11-08T17:46:20.698Z,25.55
2022-11-08T17:48:50.391Z,21.38
2022-11-08T17:51:18.631Z,26.48
2022-11-08T17:53:46.973Z,28.60
2022-11-08T17:56:16.254Z,26.35
2022-11-08T17:58:44.493Z,21.98
2022-11-08T18:01:12.964Z,24.20
2022-11-08T18:03:41.267Z,31.50
2022-11-08T18:06:13.311Z,23.60
2022-11-08T18:08:42.124Z,24.95
2022-11-08T18:11:10.476Z,22.55
2022-11-08T18:13:38.981Z,26.65
2022-11-08T18:16:08.569Z,26.27
2022-11-08T18:18:37.222Z,29.17
2022-11-08T18:21:05.730Z,28.63
2022-11-08T18:23:35.776Z,29.50
2022-11-08T18:26:03.957Z,26.63
2022-11-08T18:28:32.247Z,30.63
2022-11-08T18:31:05.954Z,26.95
2022-11-08T18:33:34.849Z,28.30
2022-11-08T18:36:06.725Z,32.60
2022-11-08T18:38:39.158Z,36.03
2022-11-08T18:41:07.832Z,31.20
2022-11-08T18:43:36.412Z,29.90
2022-11-08T18:46:05.615Z,35.92
2022-11-08T18:48:36.137Z,37.38
2022-11-08T18:51:05.034Z,35.05
2022-11-08T18:53:35.136Z,33.00
2022-11-08T18:56:03.422Z,35.53
2022-11-08T18:58:32.003Z,34.45
2022-11-08T19:01:00.793Z,36.33
2022-11-08T19:03:29.897Z,33.35
2022-11-08T19:05:58.404Z,36.35
2022-11-08T19:08:28.703Z,37.85
2022-11-08T19:11:01.449Z,35.90
2022-11-08T19:13:32.021Z,35.40
2022-11-08T19:16:01.623Z,36.60
2022-11-08T19:18:31.421Z,34.75
2022-11-08T19:21:02.300Z,41.42
2022-11-08T19:23:31.171Z,37.65
2022-11-08T19:26:03.282Z,34.22
2022-11-08T19:28:34.348Z,36.92
2022-11-08T19:31:02.852Z,42.58
2022-11-08T19:33:32.711Z,35.67
2022-11-08T19:36:05.427Z,39.47
2022-11-08T19:38:34.586Z,40.33
2022-11-08T19:41:05.358Z,34.65
2022-11-08T19:43:35.815Z,36.45
2022-11-08T19:46:06.544Z,35.13
2022-11-08T19:48:37.899Z,36.17
2022-11-08T19:51:09.111Z,38.40
2022-11-08T19:53:41.039Z,36.15
2022-11-08T19:56:15.288Z,38.60
2022-11-08T19:58:44.944Z,33.85
2022-11-08T20:01:16.617Z,42.83
2022-11-08T20:03:46.223Z,44.28
2022-11-08T20:06:16.081Z,39.03
2022-11-08T20:08:52.893Z,35.38
2022-11-08T20:11:25.285Z,42.00
2022-11-08T20:13:59.823Z,37.33
2022-11-08T20:16:30.653Z,37.78
2022-11-08T20:19:03.871Z,37.38
2022-11-08T20:21:35.435Z,30.83
2022-11-08T20:24:03.674Z,32.80
2022-11-08T20:26:38.369Z,35.67
2022-11-08T20:29:07.415Z,32.30
2022-11-08T20:31:36.108Z,35.97
2022-11-08T20:34:07.515Z,34.08
2022-11-08T20:36:40.245Z,33.85
2022-11-08T20:39:08.520Z,35.00
2022-11-08T20:41:39.244Z,36.42
2022-11-08T20:44:11.004Z,36.33
2022-11-08T20:46:39.872Z,42.20
2022-11-08T20:49:09.015Z,38.65
2022-11-08T20:51:37.786Z,40.22
2022-11-08T20:54:08.883Z,38.75
2022-11-08T20:56:38.842Z,38.53
2022-11-08T20:59:08.247Z,40.55
2022-11-08T21:01:37.972Z,42.63
2022-11-08T21:04:06.458Z,38.10
2022-11-08T21:06:36.416Z,34.38
2022-11-08T21:11:55.903Z,39.63
2022-11-08T21:14:26.157Z,39.22
2022-11-08T21:19:43.374Z,36.00
2022-11-08T21:22:17.714Z,38.40
2022-11-08T21:24:47.534Z,41.45
2022-11-08T21:27:18.261Z,33.35
2022-11-08T21:29:46.704Z,38.58
2022-11-08T21:32:14.972Z,38.13
2022-11-08T21:34:46.014Z,34.13
2022-11-08T21:37:15.107Z,36.92
2022-11-08T21:39:43.436Z,36.92
2022-11-08T21:42:11.811Z,37.78
2022-11-08T21:44:41.337Z,42.08
2022-11-08T21:47:09.680Z,34.55
2022-11-08T21:49:37.799Z,36.90
2022-11-08T21:52:06.666Z,39.55
2022-11-08T21:54:35.295Z,37.78
2022-11-08T21:57:03.559Z,41.97
2022-11-08T21:59:31.699Z,40.70
2022-11-08T22:02:01.327Z,38.88
2022-11-08T22:04:29.477Z,39.65
2022-11-08T22:06:57.774Z,41.30
2022-11-08T22:09:26.054Z,37.55
2022-11-08T22:11:54.361Z,39.75
2022-11-08T22:14:22.501Z,35.95
2022-11-08T22:16:50.739Z,40.38
2022-11-08T22:19:20.267Z,38.25
2022-11-08T22:21:48.492Z,40.78
2022-11-08T22:24:20.637Z,39.40
2022-11-08T22:26:50.127Z,33.78
2022-11-08T22:29:18.845Z,41.28
2022-11-08T22:31:47.142Z,37.88
2022-11-08T22:34:15.597Z,38.13
2022-11-08T22:36:46.146Z,42.22
2022-11-08T22:39:15.516Z,41.40
2022-11-08T22:41:43.841Z,37.60
2022-11-08T22:44:12.974Z,35.97
2022-11-08T22:46:42.379Z,36.03
2022-11-08T22:49:10.854Z,40.08
2022-11-08T22:51:39.824Z,41.72
2022-11-08T22:54:10.097Z,36.80
2022-11-08T22:56:38.537Z,41.63
2022-11-08T22:59:06.797Z,39.45
2022-11-08T23:01:35.550Z,39.60
2022-11-08T23:04:03.904Z,45.72
2022-11-08T23:06:32.391Z,40.38
2022-11-08T23:09:00.733Z,37.08
2022-11-08T23:11:47.884Z,37.47
2022-11-08T23:14:37.243Z,39.28
2022-11-08T23:17:07.309Z,38.58
2022-11-08T23:19:52.998Z,41.45
2022-11-08T23:22:40.184Z,41.70
2022-11-08T23:25:08.874Z,49.63
2022-11-08T23:27:55.713Z,40.25
2022-11-08T23:30:41.397Z,41.85
2022-11-08T23:33:09.526Z,44.63
2022-11-08T23:35:37.745Z,40.83
2022-11-08T23:38:05.917Z,43.65
2022-11-08T23:40:51.273Z,40.58
2022-11-08T23:43:39.066Z,41.45
2022-11-08T23:46:08.904Z,42.58
2022-11-08T23:48:37.851Z,46.05
2022-11-08T23:51:07.092Z,42.13
2022-11-08T23:53:36.889Z,41.28
2022-11-08T23:56:05.717Z,43.90
2022-11-08T23:58:35.280Z,38.83
